Idre Storbo, Sweden

9:46 AM CEST on May 25, 2015 (GMT +0200)
Tjonnodden, 2446 Elga, Engedal, Norway | | Change Station
CLOSE
Current Station
Personal Weather Station
Location: Hedmark, HEDMARK
Elevation: 2218 ft
Nearby Weather Stations

Elev 2218 ft 62.16 °N, 11.90 °E | Updated 41 seconds ago

Light Rain
Light Rain
38.7 °F
Feels Like 39 °F
N
0.2
Wind Variable Wind from North
Gusts 2.5 mph

Today
High -- | Low -- °F
--% Chance of Precip.
Yesterday
High -- | Low -- °F
Precip. -- in
3:54 AM 10:22 PM
Waxing Crescent, 46% visible
Pressure 29.68 in
Visibility 6.2 miles
Clouds Scattered Clouds 1100 ft
Mostly Cloudy 1900 ft
Mostly Cloudy 2500 ft
Windchill 39 °F
Dew Point 38 °F
Humidity 99%
Rainfall 0.13 in
Snow Depth Not available.
UV 2.0 out of 12
Pollen Not available.
Air Quality Not available.
Flu Activity Not available.
METAR ENRO 250720Z AUTO 36006KT 330V040 9999NDV -RA SCT011/// BKN019/// BKN025/// 03/02 Q1005

More Conditions Fewer Conditions

Pressure 29.68 in
Visibility 6.2 miles
Clouds Scattered Clouds 1100 ft
Mostly Cloudy 1900 ft
Mostly Cloudy 2500 ft
Windchill 39 °F
Dew Point 38 °F
Humidity 99%
Rainfall 0.13 in
Snow Depth Not available.
UV 2.0 out of 12
Pollen Not available.
Air Quality Not available.
Flu Activity Not available.
METAR ENRO 250720Z AUTO 36006KT 330V040 9999NDV -RA SCT011/// BKN019/// BKN025/// 03/02 Q1005

More Conditions Fewer Conditions

10-Day Weather Forecast

Almanac

Astronomy

May. 25, 2015 Rise Set
Actual Time
Civil Twilight
Nautical Twilight
Astronomical Twilight
Moon
Length of Visible Light
Length of Day
Tomorrow will be .
, % of the Moon is Illuminated

Today's Extremes

Country Highs Country Lows

Community

WunderPhotos

Upload Photos

1,823,959 photos uploaded!

WunderBlogs® & News

Nearby

Air Quality

  Air Quality AQ Index Pollutant
Not available.

Snow Depth

Station Depth Elevation

Earthquake Activity

City Distance Mag. Time & Date
Minimum magnitude displayed is 2.5.

Coastal Water Temperatures

Place Temperature

Stations

Nearby Weather Stations

Station Location Temp. Windchill Dew Point Humidity Wind Precip. Elev Updated Type